WetterOnline ( https://www.wetteronline.ch )

Wetter aktuell Winterberg

Aktuelles Wetter: Kahler Asten (841m)

6-stündlich | Neueste Meldungen
Ortszeit Temperatur Wetter
Di, 16.08. 14:00 21.0° C wolkig
Di, 16.08. 8:00 15.4° C wolkenlos
Di, 16.08. 2:00 15.1° C wolkenlos
Mo, 15.08. 20:00 17.4° C bewölkt
Mo, 15.08. 14:00 17.5° C leichter Regen
Mo, 15.08. 8:00 17.3° C bewölkt
Mo, 15.08. 2:00 19.3° C leicht bewölkt
So, 14.08. 20:00 22.5° C leicht bewölkt
Ortszeit Temperatur Wetter
Di, 16.08. 14:00 21.0° C wolkig
Di, 16.08. 13:50 21.0° C wolkig
Di, 16.08. 13:40 21.1° C wolkig
Di, 16.08. 13:30 20.9° C bewölkt
Di, 16.08. 13:20 20.9° C bewölkt
Di, 16.08. 13:10 20.7° C bedeckt
Di, 16.08. 13:00 20.9° C bewölkt
Di, 16.08. 12:30 20.8° C leicht bewölkt
Di, 16.08. 12:00 20.5° C leicht bewölkt
Di, 16.08. 11:30 20.1° C wolkenlos
Di, 16.08. 11:00 19.5° C wolkenlos
Ortszeit Relative Feuchte Sichtweite
Di, 16.08. 14:00 55% 55 km
Di, 16.08. 8:00 83% 40 km
Di, 16.08. 2:00 82% 55 km
Mo, 15.08. 20:00 76% 55 km
Mo, 15.08. 14:00 77% 40 km
Mo, 15.08. 8:00 71% 40 km
Mo, 15.08. 2:00 61% 60 km
So, 14.08. 20:00 54% 60 km
Ortszeit Relative Feuchte Sichtweite
Di, 16.08. 14:00 55% 55 km
Di, 16.08. 13:50 55% -
Di, 16.08. 13:40 53% -
Di, 16.08. 13:30 58% 55 km
Di, 16.08. 13:20 58% -
Di, 16.08. 13:10 60% -
Di, 16.08. 13:00 56% 50 km
Di, 16.08. 12:30 58% 35 km
Di, 16.08. 12:00 60% 45 km
Di, 16.08. 11:30 65% 65 km
Di, 16.08. 11:00 67% 60 km
Ortszeit Niederschlagsmenge Niederschlagsart
Di, 16.08. 14:00 0.0 l/m2 in 6 Std. -
Di, 16.08. 8:00 0.1 l/m2 in 12 Std. -
Di, 16.08. 2:00 0.1 l/m2 in 6 Std. Regen
Mo, 15.08. 20:00 2 l/m2 in 12 Std. Regen
Mo, 15.08. 14:00 2 l/m2 in 6 Std. Regen
Mo, 15.08. 8:00 0.0 l/m2 in 12 Std. -
Mo, 15.08. 2:00 0.0 l/m2 in 6 Std. -
So, 14.08. 20:00 0.0 l/m2 in 12 Std. -
Ortszeit Niederschlagsmenge Niederschlagsart
Di, 16.08. 14:00 0.0 l/m2 in 1 Std. -
Di, 16.08. 13:50 keine Meldung -
Di, 16.08. 13:40 keine Meldung -
Di, 16.08. 13:30 0.0 l/m2 in 1 Std. -
Di, 16.08. 13:20 keine Meldung -
Di, 16.08. 13:10 keine Meldung -
Di, 16.08. 13:00 0.0 l/m2 in 1 Std. -
Di, 16.08. 12:30 0.0 l/m2 in 1 Std. -
Di, 16.08. 12:00 0.0 l/m2 in 1 Std. -
Di, 16.08. 11:30 0.0 l/m2 in 1 Std. -
Di, 16.08. 11:00 0.0 l/m2 in 1 Std. -
Ortszeit Stärke Spitze Richtung
km/h Bft. km/h Grad Sektor
Di, 16.08. 14:00 7 2 22 210° SW
Di, 16.08. 8:00 14 3 29 240° SW
Di, 16.08. 2:00 18 3 25 230° SW
Mo, 15.08. 20:00 9 2 20 240° SW
Mo, 15.08. 14:00 6 1 35 250° W
Mo, 15.08. 8:00 17 3 26 220° SW
Mo, 15.08. 2:00 18 3 29 80° O
So, 14.08. 20:00 13 3 35 90° O
Ortszeit Stärke Spitze Richtung
km/h Bft. km/h Grad Sektor
Di, 16.08. 14:00 7 2 18 210° SW
Di, 16.08. 13:50 7 2 - 210° SW
Di, 16.08. 13:40 9 2 - 190° S
Di, 16.08. 13:30 11 2 18 230° SW
Di, 16.08. 13:20 11 2 - 230° SW
Di, 16.08. 13:10 13 3 - 240° SW
Di, 16.08. 13:00 14 3 22 240° SW
Di, 16.08. 12:30 9 2 20 260° W
Di, 16.08. 12:00 13 3 20 270° W
Di, 16.08. 11:30 11 2 22 230° SW
Di, 16.08. 11:00 13 3 22 220° SW
Ortszeit Untergrenze Bedeckung Gattung
total tief tief mittel hoch
Di, 16.08. 14:00 2700 m 6/8 6/8 - - -
Di, 16.08. 8:00 - 0/8 0/8 - - -
Di, 16.08. 2:00 - 0/8 0/8 - - -
Mo, 15.08. 20:00 990 m 8/8 7/8 - - -
Mo, 15.08. 14:00 2400 m 7/8 7/8 - - -
Mo, 15.08. 8:00 2100 m 7/8 6/8 - - -
Mo, 15.08. 2:00 8700 m 5/8 0/8 - - -
So, 14.08. 20:00 1800 m 3/8 1/8 - - -
Ortszeit Bedeckungsgrad in Achtel und Wolkenuntergrenze
Di, 16.08. 14:00 6(2700m)
Di, 16.08. 13:50 6(2700m)
Di, 16.08. 13:40 6
Di, 16.08. 13:30 7(2700m)
Di, 16.08. 13:20 7(2700m)
Di, 16.08. 13:10 8
Di, 16.08. 13:00 6(1110m) 6(1320m) 7(2700m)
Di, 16.08. 12:30 1(960m)
Di, 16.08. 12:00 3(900m)
Di, 16.08. 11:30 keine Wolken
Di, 16.08. 11:00 keine Wolken
Ortszeit Stationsdruck (hPa) Tendenz (hPa in 3 Std.)
Di, 16.08. 14:00 914 + 0,8
Di, 16.08. 8:00 912 + 0,6
Di, 16.08. 2:00 912 + 0,3
Mo, 15.08. 20:00 910 + 0,4
Mo, 15.08. 14:00 910 + 0,7
Mo, 15.08. 8:00 909 - 0,1
Mo, 15.08. 2:00 911 - 0,9
So, 14.08. 20:00 912 - 0,7
Ortszeit Stationsdruck (hPa) Tendenz (hPa in 3 Std.)
Di, 16.08. 14:00 914 + 0,8
Di, 16.08. 13:50 914 keine Meldung
Di, 16.08. 13:40 914 keine Meldung
Di, 16.08. 13:30 914 + 0,9
Di, 16.08. 13:20 914 keine Meldung
Di, 16.08. 13:10 914 keine Meldung
Di, 16.08. 13:00 914 + 1,0
Di, 16.08. 12:30 914 + 0,8
Di, 16.08. 12:00 914 + 1,0
Di, 16.08. 11:30 914 + 1,2
Di, 16.08. 11:00 913 + 1,2
Ortszeit Schneehöhe (cm)
Di, 16.08. 14:00 -
Di, 16.08. 8:00 -
Di, 16.08. 2:00 -
Mo, 15.08. 20:00 -
Mo, 15.08. 14:00 -
Mo, 15.08. 8:00 -
Mo, 15.08. 2:00 -
So, 14.08. 20:00 -
Ortszeit Schneehöhe (cm)
Di, 16.08. 14:00 -
Di, 16.08. 13:50 -
Di, 16.08. 13:40 -
Di, 16.08. 13:30 -
Di, 16.08. 13:20 -
Di, 16.08. 13:10 -
Di, 16.08. 13:00 -
Di, 16.08. 12:30 -
Di, 16.08. 12:00 -
Di, 16.08. 11:30 -
Di, 16.08. 11:00 -
Link zu dieser Seite / Seite empfehlen

Das Wetter in ...